Time;durP1;ratioP1;P1;durP2;ratioP2;P2;SDS_P1;SDS_P2;PMS_P1;PMS_P2;Temp;Humidity;BMP_temperature;BMP_pressure;BME280_temperature;BME280_humidity;BME280_pressure;Samples;Min_cycle;Max_cycle;Signal;HPM_P1;HPM_P2
2021/06/11 00:01:09;;;;;;;18.05;16.35;;;16.60;99.90;;;;;;6246741;28;20041;-76
2021/06/11 00:04:10;;;;;;;18.88;16.92;;;16.50;99.90;;;;;;6247126;28;20041;-78
2021/06/11 00:07:13;;;;;;;16.23;14.57;;;16.50;99.90;;;;;;6247028;28;20115;-77
2021/06/11 00:10:16;;;;;;;18.75;16.85;;;16.50;99.90;;;;;;6247820;28;20041;-78
2021/06/11 00:13:17;;;;;;;18.67;16.85;;;16.40;99.90;;;;;;6246917;28;20396;-78
2021/06/11 00:16:19;;;;;;;18.20;16.60;;;16.40;99.90;;;;;;6248545;28;20124;-78
2021/06/11 00:19:20;;;;;;;19.85;17.75;;;16.40;99.90;;;;;;6249195;28;20037;-77
2021/06/11 00:22:23;;;;;;;20.13;18.30;;;16.30;99.90;;;;;;6248899;28;20137;-76
2021/06/11 00:25:26;;;;;;;19.33;16.73;;;16.30;99.90;;;;;;6247745;28;20479;-76
2021/06/11 00:28:27;;;;;;;19.85;17.90;;;16.20;99.90;;;;;;6247940;28;20128;-77
2021/06/11 00:31:29;;;;;;;17.60;15.98;;;16.20;99.90;;;;;;6248531;28;20103;-77
2021/06/11 00:34:31;;;;;;;21.33;16.63;;;16.30;99.90;;;;;;6249006;28;20053;-77
2021/06/11 00:37:34;;;;;;;16.75;15.15;;;16.20;99.90;;;;;;6248455;28;20123;-76
2021/06/11 00:40:37;;;;;;;16.10;14.05;;;16.30;99.90;;;;;;6248929;28;20056;-77
2021/06/11 00:43:38;;;;;;;18.23;15.65;;;16.20;99.90;;;;;;6240610;28;20057;-78
2021/06/11 00:46:39;;;;;;;17.92;16.00;;;16.20;99.90;;;;;;6228870;28;20088;-77
2021/06/11 00:49:41;;;;;;;17.60;15.88;;;16.20;99.90;;;;;;6253448;28;20136;-76
2021/06/11 00:52:43;;;;;;;18.20;16.48;;;16.20;99.90;;;;;;6253148;28;20073;-78
2021/06/11 00:55:45;;;;;;;18.67;16.88;;;16.20;99.90;;;;;;6281105;22;20060;-76
2021/06/11 00:58:46;;;;;;;17.73;16.02;;;16.20;99.90;;;;;;6274753;28;20438;-77
2021/06/11 01:01:48;;;;;;;19.58;16.90;;;16.20;99.90;;;;;;6275480;28;20139;-77
2021/06/11 01:04:49;;;;;;;20.40;18.30;;;16.20;99.90;;;;;;6274764;28;20052;-78
2021/06/11 01:07:53;;;;;;;20.77;17.08;;;16.30;99.90;;;;;;6274938;28;20049;-78
2021/06/11 01:10:56;;;;;;;18.58;16.77;;;16.40;99.90;;;;;;6274845;28;20146;-77
2021/06/11 01:13:58;;;;;;;18.83;17.13;;;16.40;99.90;;;;;;6275421;28;20135;-77
2021/06/11 01:16:59;;;;;;;17.30;15.57;;;16.40;99.90;;;;;;6273969;28;20045;-77
2021/06/11 01:20:05;;;;;;;20.42;17.85;;;16.40;99.90;;;;;;6263202;28;20124;-78
2021/06/11 01:23:34;;;;;;;19.58;17.52;;;16.30;99.90;;;;;;6250057;28;20469;-78
2021/06/11 01:26:38;;;;;;;24.02;17.77;;;16.20;99.90;;;;;;6249681;28;20132;-77
2021/06/11 01:29:42;;;;;;;18.88;16.20;;;16.20;99.90;;;;;;6249020;28;20042;-77
2021/06/11 01:32:45;;;;;;;18.20;16.40;;;16.10;99.90;;;;;;6248230;28;20052;-77
2021/06/11 01:35:52;;;;;;;20.48;18.58;;;16.10;99.90;;;;;;6248432;28;20129;-77
2021/06/11 01:38:55;;;;;;;23.20;19.05;;;16.00;99.90;;;;;;6248826;28;20191;-76
2021/06/11 01:42:00;;;;;;;19.27;17.35;;;16.00;99.90;;;;;;6249212;28;20485;-77
2021/06/11 01:45:07;;;;;;;19.25;17.40;;;15.90;99.90;;;;;;6248546;28;20199;-77
2021/06/11 01:48:11;;;;;;;19.47;16.17;;;15.80;99.90;;;;;;6248789;28;20126;-77
2021/06/11 01:51:14;;;;;;;19.92;17.67;;;15.80;99.90;;;;;;6248255;28;20073;-78
2021/06/11 01:54:16;;;;;;;19.20;14.75;;;15.80;99.90;;;;;;6248816;28;20114;-77
2021/06/11 01:57:20;;;;;;;19.15;17.20;;;15.80;99.90;;;;;;6247549;28;20128;-77
2021/06/11 02:00:22;;;;;;;18.20;16.35;;;15.70;99.90;;;;;;6248030;28;20041;-77
2021/06/11 02:03:24;;;;;;;16.95;15.43;;;15.80;99.90;;;;;;6248247;28;20459;-77
2021/06/11 02:06:26;;;;;;;18.95;17.05;;;15.80;99.90;;;;;;6248446;28;20052;-77
2021/06/11 02:09:28;;;;;;;19.13;17.33;;;15.80;99.90;;;;;;6248123;28;20049;-78
2021/06/11 02:12:31;;;;;;;19.73;17.88;;;15.70;99.90;;;;;;6247988;28;20046;-77
2021/06/11 02:15:32;;;;;;;19.58;17.50;;;15.60;99.90;;;;;;6248171;28;20065;-77
2021/06/11 02:18:35;;;;;;;17.63;16.02;;;15.60;99.90;;;;;;6248089;28;20106;-78
2021/06/11 02:21:37;;;;;;;17.92;16.13;;;15.60;99.90;;;;;;6247763;28;20056;-77
2021/06/11 02:24:39;;;;;;;15.32;13.88;;;15.50;99.90;;;;;;6247583;28;20046;-77
2021/06/11 02:27:43;;;;;;;16.67;14.90;;;15.60;99.90;;;;;;6247888;28;20065;-77
2021/06/11 02:30:45;;;;;;;18.27;16.48;;;15.50;99.90;;;;;;6247279;28;20141;-77
2021/06/11 02:33:46;;;;;;;15.52;13.95;;;15.40;99.90;;;;;;6247204;28;20103;-78
2021/06/11 02:36:47;;;;;;;17.05;15.35;;;15.40;99.90;;;;;;6247103;28;20129;-76
2021/06/11 02:39:49;;;;;;;17.08;15.48;;;15.40;99.90;;;;;;6246996;28;20037;-77
2021/06/11 02:42:57;;;;;;;17.83;15.93;;;15.30;99.90;;;;;;6247537;28;20081;-77
2021/06/11 02:46:06;;;;;;;16.88;15.38;;;15.30;99.90;;;;;;6247411;28;20513;-78
2021/06/11 02:49:16;;;;;;;17.98;15.98;;;15.30;99.90;;;;;;6247299;28;20046;-77
2021/06/11 02:52:22;;;;;;;17.63;15.93;;;15.30;99.90;;;;;;6247384;28;20065;-77
2021/06/11 02:55:24;;;;;;;24.33;17.42;;;15.20;99.90;;;;;;6247145;28;20096;-77
2021/06/11 02:58:33;;;;;;;17.83;16.05;;;15.20;99.90;;;;;;6247344;28;20136;-77
2021/06/11 03:01:39;;;;;;;18.13;16.42;;;15.10;99.90;;;;;;6246928;28;20502;-77
2021/06/11 03:04:44;;;;;;;17.92;15.57;;;15.10;99.90;;;;;;6246923;28;20465;-77
2021/06/11 03:07:48;;;;;;;20.88;17.02;;;15.00;99.90;;;;;;6246774;28;20041;-77
2021/06/11 03:10:53;;;;;;;19.42;16.27;;;15.00;99.90;;;;;;6246468;28;20490;-77
2021/06/11 03:13:57;;;;;;;18.63;16.92;;;15.00;99.90;;;;;;6247207;28;20060;-77
2021/06/11 03:17:01;;;;;;;18.55;16.80;;;15.10;99.90;;;;;;6246660;28;20084;-77
2021/06/11 03:20:08;;;;;;;16.52;15.13;;;15.10;99.90;;;;;;6246212;28;20073;-77
2021/06/11 03:23:15;;;;;;;17.92;16.13;;;15.10;99.90;;;;;;6246586;28;20098;-77
2021/06/11 03:26:22;;;;;;;16.42;14.75;;;15.10;99.90;;;;;;6244449;28;20476;-77
2021/06/11 03:29:30;;;;;;;15.10;13.67;;;15.10;99.90;;;;;;6245969;28;20128;-77
2021/06/11 03:32:37;;;;;;;15.73;14.13;;;15.20;99.90;;;;;;6246025;28;20111;-77
2021/06/11 03:35:44;;;;;;;15.30;13.55;;;15.50;99.90;;;;;;6246375;28;20046;-76
2021/06/11 03:38:49;;;;;;;16.60;14.90;;;15.60;99.90;;;;;;6245823;28;20463;-77
2021/06/11 03:41:52;;;;;;;15.45;13.85;;;15.70;99.90;;;;;;6246934;28;20053;-77
2021/06/11 03:44:57;;;;;;;15.85;14.15;;;15.70;99.90;;;;;;6246109;28;20045;-78
2021/06/11 03:48:01;;;;;;;15.77;14.07;;;15.70;99.90;;;;;;6246467;28;20128;-77
2021/06/11 03:51:04;;;;;;;13.88;12.63;;;15.70;99.90;;;;;;6246148;28;20045;-77
2021/06/11 03:54:08;;;;;;;15.88;14.27;;;15.70;99.90;;;;;;6246409;28;20053;-78
2021/06/11 03:57:10;;;;;;;14.13;12.65;;;15.80;99.90;;;;;;6246289;28;20041;-77
2021/06/11 04:00:14;;;;;;;15.73;12.70;;;15.90;99.90;;;;;;6245857;28;20116;-77
2021/06/11 04:03:15;;;;;;;14.82;13.43;;;15.80;99.90;;;;;;6246074;28;20124;-77
2021/06/11 04:06:20;;;;;;;19.02;13.45;;;15.90;99.90;;;;;;6246535;28;20136;-77
2021/06/11 04:09:24;;;;;;;18.05;13.77;;;16.00;99.90;;;;;;6245604;28;20570;-77
2021/06/11 04:12:33;;;;;;;15.15;13.52;;;16.10;99.90;;;;;;6246024;28;20045;-76
2021/06/11 04:15:37;;;;;;;16.55;13.95;;;16.00;99.90;;;;;;6246760;28;20195;-76
2021/06/11 04:18:42;;;;;;;14.63;13.13;;;16.10;99.90;;;;;;6245760;28;20418;-77
2021/06/11 04:21:46;;;;;;;15.95;14.50;;;16.10;99.90;;;;;;6250720;28;20499;-77
2021/06/11 04:24:49;;;;;;;15.50;13.90;;;16.10;99.90;;;;;;6250425;28;20123;-77
2021/06/11 04:27:54;;;;;;;15.45;13.95;;;16.10;99.90;;;;;;6250979;28;20588;-77
2021/06/11 04:30:57;;;;;;;15.23;13.68;;;16.20;99.90;;;;;;6250439;28;20056;-77
2021/06/11 04:33:59;;;;;;;14.27;12.88;;;16.30;99.90;;;;;;6250871;28;20080;-77
2021/06/11 04:37:00;;;;;;;18.58;15.18;;;16.40;99.90;;;;;;6250316;28;20514;-77
2021/06/11 04:40:02;;;;;;;17.63;14.65;;;16.50;99.90;;;;;;6250231;28;20441;-77
2021/06/11 04:43:03;;;;;;;20.67;14.18;;;16.50;99.90;;;;;;6250006;28;20102;-78
2021/06/11 04:46:05;;;;;;;17.13;15.45;;;16.50;99.90;;;;;;6250774;28;20089;-77
2021/06/11 04:49:07;;;;;;;15.02;12.80;;;16.90;99.90;;;;;;6249729;28;20128;-78
2021/06/11 04:52:08;;;;;;;13.35;12.13;;;17.00;99.90;;;;;;6250083;28;20132;-77
2021/06/11 04:55:11;;;;;;;15.18;13.50;;;17.10;99.90;;;;;;6249947;28;20051;-77
2021/06/11 04:58:18;;;;;;;14.45;12.45;;;17.30;99.90;;;;;;6250095;28;20057;-78
2021/06/11 05:01:21;;;;;;;13.55;12.25;;;17.50;99.90;;;;;;6249612;28;20038;-78
2021/06/11 05:04:23;;;;;;;14.32;13.00;;;17.70;99.90;;;;;;6249804;28;20120;-77
2021/06/11 05:07:24;;;;;;;13.45;12.15;;;18.00;99.90;;;;;;6250015;28;20054;-78
2021/06/11 05:10:26;;;;;;;13.05;11.85;;;18.30;99.90;;;;;;6250025;28;20047;-77
2021/06/11 05:13:27;;;;;;;12.90;11.63;;;18.50;99.90;;;;;;6249664;28;20073;-78
2021/06/11 05:16:31;;;;;;;13.20;11.70;;;18.70;99.90;;;;;;6249314;28;20118;-78
2021/06/11 05:19:33;;;;;;;14.18;12.65;;;18.90;99.90;;;;;;6249040;28;20132;-77
2021/06/11 05:22:34;;;;;;;12.90;11.60;;;19.10;99.90;;;;;;6249489;28;20056;-78
2021/06/11 05:25:37;;;;;;;14.10;10.85;;;19.30;99.30;;;;;;6249362;28;20073;-78
2021/06/11 05:28:38;;;;;;;12.48;11.18;;;19.50;98.90;;;;;;6249058;28;20146;-78
2021/06/11 05:31:42;;;;;;;12.65;11.27;;;19.70;98.10;;;;;;6247969;28;20041;-78
2021/06/11 05:34:43;;;;;;;14.77;13.40;;;19.90;97.70;;;;;;6249046;28;20057;-77
2021/06/11 05:37:44;;;;;;;12.45;11.15;;;20.10;96.80;;;;;;6249558;28;20132;-78
2021/06/11 05:40:46;;;;;;;12.25;11.25;;;20.30;96.00;;;;;;6248471;28;20134;-77
2021/06/11 05:43:50;;;;;;;13.95;12.63;;;20.50;95.50;;;;;;6248578;28;20130;-76
2021/06/11 05:46:53;;;;;;;13.88;12.50;;;20.70;94.90;;;;;;6248623;28;20503;-77
2021/06/11 05:49:54;;;;;;;14.32;12.95;;;20.90;94.20;;;;;;6248692;28;20140;-77
2021/06/11 05:52:55;;;;;;;15.68;12.13;;;21.20;93.40;;;;;;6248477;28;20054;-77
2021/06/11 05:55:57;;;;;;;13.95;12.38;;;21.40;92.50;;;;;;6248323;28;20042;-78
2021/06/11 05:58:58;;;;;;;13.77;11.98;;;21.60;91.70;;;;;;6248217;28;20127;-78
2021/06/11 06:02:01;;;;;;;12.88;11.27;;;21.80;90.80;;;;;;6248601;28;20132;-78
2021/06/11 06:05:03;;;;;;;12.65;11.45;;;22.30;89.50;;;;;;6238984;28;20061;-77
2021/06/11 06:08:05;;;;;;;16.23;11.43;;;23.20;85.40;;;;;;6247750;28;20128;-78
2021/06/11 06:11:07;;;;;;;11.48;10.50;;;24.20;80.10;;;;;;6247730;28;20049;-78
2021/06/11 06:14:09;;;;;;;11.57;10.57;;;24.90;75.00;;;;;;6247961;28;20053;-77
2021/06/11 06:17:11;;;;;;;11.73;10.60;;;25.40;71.60;;;;;;6247822;28;20045;-78
2021/06/11 06:20:14;;;;;;;12.98;10.77;;;25.80;69.90;;;;;;6247616;28;20088;-77
2021/06/11 06:23:15;;;;;;;13.25;10.95;;;26.20;67.00;;;;;;6247592;28;20431;-77
2021/06/11 06:26:17;;;;;;;11.50;10.10;;;26.40;65.30;;;;;;6248192;28;20054;-78
2021/06/11 06:29:18;;;;;;;11.27;9.73;;;26.60;64.30;;;;;;6247160;28;20072;-78
2021/06/11 06:32:21;;;;;;;13.55;11.02;;;26.90;63.80;;;;;;6247278;28;20042;-77
2021/06/11 06:35:22;;;;;;;12.23;10.45;;;27.00;62.30;;;;;;6247777;28;20160;-77
2021/06/11 06:38:25;;;;;;;10.80;9.68;;;27.10;61.80;;;;;;6248003;28;20159;-77
2021/06/11 06:41:26;;;;;;;11.70;10.55;;;27.10;60.30;;;;;;6224070;28;20052;-77
2021/06/11 06:44:27;;;;;;;10.55;9.32;;;27.20;59.50;;;;;;6223035;28;20573;-79
2021/06/11 06:47:30;;;;;;;10.50;9.40;;;27.20;60.20;;;;;;6224091;28;20137;-79
2021/06/11 06:50:31;;;;;;;10.60;9.57;;;27.40;59.30;;;;;;6223383;28;20053;-75
2021/06/11 06:53:33;;;;;;;11.52;8.98;;;27.50;58.90;;;;;;6222790;28;20053;-78
2021/06/11 06:56:34;;;;;;;10.02;9.13;;;27.30;58.70;;;;;;6241825;23;20050;-78
2021/06/11 06:59:35;;;;;;;11.10;9.52;;;26.90;60.50;;;;;;6235969;28;20407;-77
2021/06/11 07:02:38;;;;;;;11.80;10.82;;;26.70;61.40;;;;;;6222559;28;20050;-79
2021/06/11 07:05:40;;;;;;;10.85;9.95;;;26.60;61.20;;;;;;6230794;28;20101;-77
2021/06/11 07:08:41;;;;;;;11.82;10.70;;;26.60;61.60;;;;;;6229922;28;20041;-78
2021/06/11 07:11:42;;;;;;;11.38;10.23;;;26.50;62.10;;;;;;6229898;28;20038;-77
2021/06/11 07:14:43;;;;;;;12.23;11.13;;;26.60;61.10;;;;;;6230653;28;20042;-76
2021/06/11 07:17:46;;;;;;;14.70;11.52;;;26.70;61.10;;;;;;6254801;28;20033;-79
2021/06/11 07:20:49;;;;;;;11.45;10.27;;;26.90;60.60;;;;;;6236608;28;20034;-78
2021/06/11 07:23:50;;;;;;;11.77;10.63;;;26.90;60.80;;;;;;6229378;28;20050;-78
2021/06/11 07:26:51;;;;;;;11.93;10.50;;;26.90;60.50;;;;;;6229323;28;20037;-78
2021/06/11 07:29:53;;;;;;;12.98;10.60;;;27.00;60.60;;;;;;6201085;28;20133;-76
2021/06/11 07:32:55;;;;;;;12.07;11.00;;;27.10;60.50;;;;;;6202125;28;20476;-76
2021/06/11 07:35:58;;;;;;;14.57;11.55;;;27.20;60.40;;;;;;6201361;28;20088;-77
2021/06/11 07:38:59;;;;;;;12.07;10.88;;;27.40;60.00;;;;;;6200216;28;20451;-78
2021/06/11 07:42:01;;;;;;;11.15;9.52;;;27.60;59.60;;;;;;6200402;28;20074;-77
2021/06/11 07:45:03;;;;;;;12.77;10.35;;;27.80;59.50;;;;;;6199155;28;20069;-76
2021/06/11 07:48:06;;;;;;;12.18;10.60;;;28.10;58.60;;;;;;6199799;28;20082;-76
2021/06/11 07:51:08;;;;;;;13.13;12.02;;;28.20;58.40;;;;;;6201770;28;20543;-77
2021/06/11 07:54:09;;;;;;;13.77;10.75;;;28.20;57.90;;;;;;6199832;28;20076;-76
2021/06/11 07:57:11;;;;;;;12.40;9.55;;;28.40;57.30;;;;;;6203459;28;20455;-76
2021/06/11 08:00:13;;;;;;;11.32;10.32;;;28.50;57.00;;;;;;6203262;28;20120;-77
2021/06/11 08:03:16;;;;;;;12.07;10.95;;;28.80;56.30;;;;;;6204399;28;20133;-77
2021/06/11 08:06:17;;;;;;;11.85;10.35;;;29.40;55.90;;;;;;6203899;28;20082;-77
2021/06/11 08:09:18;;;;;;;10.75;9.75;;;29.60;54.60;;;;;;6202363;28;20058;-77
2021/06/11 08:12:20;;;;;;;10.65;9.75;;;29.80;53.50;;;;;;6203701;28;20132;-77
2021/06/11 08:15:21;;;;;;;12.63;9.40;;;30.10;53.10;;;;;;6204094;28;20053;-78
2021/06/11 08:18:24;;;;;;;11.00;10.02;;;30.50;51.80;;;;;;6203422;28;20519;-76
2021/06/11 08:21:25;;;;;;;12.75;11.05;;;31.10;50.60;;;;;;6202564;28;20074;-76
2021/06/11 08:24:27;;;;;;;12.35;10.65;;;31.50;49.30;;;;;;6202739;28;20565;-76
2021/06/11 08:27:28;;;;;;;10.95;9.18;;;32.10;48.30;;;;;;6202626;28;20188;-77
2021/06/11 08:30:30;;;;;;;11.43;9.57;;;32.50;47.60;;;;;;6202734;28;20148;-77
2021/06/11 08:33:33;;;;;;;12.18;9.68;;;33.20;46.10;;;;;;6203238;28;20128;-77
2021/06/11 08:36:34;;;;;;;10.10;9.23;;;33.70;48.80;;;;;;6203051;28;20058;-77
2021/06/11 08:39:36;;;;;;;8.95;8.13;;;34.20;44.10;;;;;;6203745;28;20139;-77
2021/06/11 08:42:39;;;;;;;9.60;8.70;;;34.90;42.00;;;;;;6204206;28;20141;-76
2021/06/11 08:45:41;;;;;;;9.85;8.85;;;34.90;42.40;;;;;;6204165;28;20050;-78
2021/06/11 08:48:44;;;;;;;11.65;8.45;;;35.30;42.10;;;;;;6203286;28;20070;-76
2021/06/11 08:51:45;;;;;;;8.57;7.63;;;35.40;41.00;;;;;;6204017;28;20081;-77
2021/06/11 08:54:48;;;;;;;9.20;8.32;;;35.50;40.20;;;;;;6204235;28;20140;-78
2021/06/11 08:57:49;;;;;;;8.35;7.55;;;35.70;39.70;;;;;;6202688;28;20389;-77
2021/06/11 09:00:51;;;;;;;9.80;7.97;;;35.70;39.00;;;;;;6201759;28;20039;-77
2021/06/11 09:03:53;;;;;;;11.75;9.57;;;36.00;38.90;;;;;;6202317;28;20046;-76
2021/06/11 09:07:18;;;;;;;8.93;7.90;;;36.10;38.40;;;;;;6202540;28;20054;-78
2021/06/11 09:10:24;;;;;;;9.43;8.40;;;36.10;38.90;;;;;;6203639;28;20121;-78
2021/06/11 09:13:27;;;;;;;8.32;7.45;;;36.10;38.70;;;;;;6202379;28;20165;-77
2021/06/11 09:16:29;;;;;;;7.68;6.70;;;36.20;39.00;;;;;;6201289;28;20050;-77
2021/06/11 09:19:33;;;;;;;8.13;7.35;;;36.50;37.60;;;;;;6201217;28;20046;-77
2021/06/11 09:22:40;;;;;;;9.57;6.90;;;36.40;37.10;;;;;;6201592;28;20057;-76
2021/06/11 09:25:45;;;;;;;9.77;8.23;;;36.40;37.10;;;;;;6201351;28;20572;-78
2021/06/11 09:28:46;;;;;;;8.68;7.63;;;36.40;37.20;;;;;;6202076;28;20508;-77
2021/06/11 09:31:48;;;;;;;8.48;7.68;;;36.60;36.80;;;;;;6202359;28;20042;-77
2021/06/11 09:34:52;;;;;;;12.57;7.35;;;36.70;36.40;;;;;;6201857;28;20481;-77
2021/06/11 09:38:07;;;;;;;9.20;7.80;;;36.50;36.30;;;;;;6201844;28;20057;-77
2021/06/11 09:41:11;;;;;;;8.43;6.47;;;36.50;36.00;;;;;;6202955;28;20527;-77
2021/06/11 09:44:25;;;;;;;6.45;5.95;;;36.60;36.30;;;;;;6202509;28;20046;-78
2021/06/11 09:47:35;;;;;;;10.57;7.13;;;36.70;36.00;;;;;;6202868;28;20042;-77
2021/06/11 09:50:39;;;;;;;5.72;5.20;;;36.70;35.60;;;;;;6203231;28;20055;-77
2021/06/11 09:53:41;;;;;;;7.85;6.82;;;36.70;35.10;;;;;;6225480;28;20126;-78
2021/06/11 09:56:42;;;;;;;8.63;5.50;;;36.60;35.30;;;;;;6225799;28;20076;-77
2021/06/11 09:59:44;;;;;;;6.07;5.47;;;36.60;34.40;;;;;;6226075;28;20065;-77
2021/06/11 10:02:45;;;;;;;5.05;4.55;;;36.50;34.80;;;;;;6226937;28;20494;-78
2021/06/11 10:05:49;;;;;;;5.35;4.85;;;36.70;34.10;;;;;;6226509;28;20077;-77
2021/06/11 10:08:52;;;;;;;3.90;3.50;;;36.70;33.40;;;;;;6226988;28;20132;-77
2021/06/11 10:11:53;;;;;;;3.67;3.03;;;36.50;32.00;;;;;;6226011;28;20479;-80
2021/06/11 10:14:56;;;;;;;4.00;3.30;;;36.40;32.50;;;;;;6225266;28;20408;-77
2021/06/11 10:17:57;;;;;;;8.05;5.60;;;36.20;31.70;;;;;;6224302;28;20053;-76
2021/06/11 10:21:01;;;;;;;6.72;3.13;;;35.70;32.30;;;;;;6223828;28;20457;-77
2021/06/11 10:24:05;;;;;;;4.70;3.85;;;35.40;32.70;;;;;;6224131;28;20046;-75
2021/06/11 10:27:07;;;;;;;5.78;5.35;;;;;;;;;;6224223;28;20052;-77
2021/06/11 10:30:09;;;;;;;6.53;5.47;;;35.00;35.10;;;;;;6224038;28;20132;-76
2021/06/11 10:33:11;;;;;;;7.35;4.45;;;34.70;36.90;;;;;;6223530;28;20050;-76
2021/06/11 10:36:39;;;;;;;6.07;4.35;;;34.50;36.80;;;;;;6223423;28;20172;-76
2021/06/11 10:39:41;;;;;;;5.78;5.28;;;34.40;36.60;;;;;;6223510;28;20104;-77
2021/06/11 10:42:42;;;;;;;5.18;4.68;;;34.30;37.30;;;;;;6223611;28;20049;-76
2021/06/11 10:45:45;;;;;;;6.55;4.78;;;34.50;36.40;;;;;;6223609;28;20081;-76
2021/06/11 10:49:06;;;;;;;4.40;3.97;;;34.50;36.30;;;;;;6223171;28;20046;-76
2021/06/11 10:52:28;;;;;;;4.10;3.75;;;34.50;35.90;;;;;;6223256;28;20423;-76
2021/06/11 10:55:48;;;;;;;5.80;4.15;;;34.40;36.60;;;;;;6223073;28;20125;-76
2021/06/11 10:58:50;;;;;;;7.28;3.90;;;34.30;35.60;;;;;;6222930;28;20050;-76
2021/06/11 11:01:51;;;;;;;3.72;3.42;;;34.30;34.60;;;;;;6223361;28;20451;-76
2021/06/11 11:04:53;;;;;;;5.50;3.33;;;34.20;35.00;;;;;;6222947;28;20053;-76
2021/06/11 11:07:56;;;;;;;5.35;2.95;;;34.10;34.40;;;;;;6222791;28;20523;-76
2021/06/11 11:10:57;;;;;;;4.78;2.78;;;33.90;34.60;;;;;;6222612;28;20141;-77
2021/06/11 11:14:00;;;;;;;4.38;2.65;;;34.00;34.00;;;;;;6223324;28;20056;-76
2021/06/11 11:17:01;;;;;;;7.68;2.58;;;34.10;33.60;;;;;;6222860;28;20045;-76
2021/06/11 11:20:05;;;;;;;3.08;2.45;;;33.80;33.60;;;;;;6222663;28;20049;-78
2021/06/11 11:23:09;;;;;;;12.10;3.58;;;33.70;34.50;;;;;;6222831;28;20066;-77
2021/06/11 11:26:11;;;;;;;3.30;2.85;;;33.80;34.10;;;;;;6223136;28;20088;-77
2021/06/11 11:29:14;;;;;;;5.68;2.90;;;33.90;34.30;;;;;;6222216;28;20535;-76
2021/06/11 11:32:15;;;;;;;2.47;2.28;;;33.80;35.10;;;;;;6222345;28;20045;-76
2021/06/11 11:35:18;;;;;;;4.80;2.90;;;33.80;34.80;;;;;;6222321;28;20432;-77
2021/06/11 11:38:21;;;;;;;4.32;3.22;;;33.80;35.00;;;;;;6222634;28;20622;-76
2021/06/11 11:41:22;;;;;;;4.07;3.72;;;33.90;34.40;;;;;;6222053;28;20050;-77
2021/06/11 11:44:26;;;;;;;5.03;3.17;;;33.90;34.50;;;;;;6222167;28;20046;-77
2021/06/11 11:47:27;;;;;;;4.05;2.47;;;33.90;34.40;;;;;;6222408;28;20052;-77
2021/06/11 11:50:30;;;;;;;2.70;2.50;;;34.00;34.60;;;;;;6222900;28;20515;-77
2021/06/11 11:53:33;;;;;;;3.35;3.05;;;34.20;35.00;;;;;;6222768;28;20447;-76
2021/06/11 11:56:34;;;;;;;3.55;2.72;;;34.20;34.00;;;;;;6221488;28;20081;-76
2021/06/11 11:59:36;;;;;;;3.78;2.70;;;34.20;35.10;;;;;;6221680;28;20127;-77
2021/06/11 12:02:37;;;;;;;5.50;2.75;;;34.10;35.10;;;;;;6222181;28;20125;-76
2021/06/11 12:05:38;;;;;;;9.15;3.75;;;34.10;35.30;;;;;;6221122;28;20042;-77
2021/06/11 12:08:41;;;;;;;4.85;2.95;;;33.90;35.30;;;;;;6221175;28;20053;-76
2021/06/11 12:11:42;;;;;;;3.00;2.80;;;33.90;35.20;;;;;;6221459;28;20120;-76
2021/06/11 12:14:44;;;;;;;2.83;2.63;;;33.90;34.80;;;;;;6221435;28;20137;-75
2021/06/11 12:17:45;;;;;;;4.80;2.97;;;33.90;34.60;;;;;;6222107;28;20135;-76
2021/06/11 12:20:46;;;;;;;4.82;2.38;;;34.00;34.70;;;;;;6221146;28;20130;-76
2021/06/11 12:23:49;;;;;;;2.67;2.47;;;34.20;34.10;;;;;;6221473;28;20077;-76
2021/06/11 12:26:51;;;;;;;3.55;3.15;;;34.60;33.00;;;;;;6221137;28;20460;-76
2021/06/11 12:29:52;;;;;;;4.25;3.25;;;34.80;32.90;;;;;;6221401;28;20049;-76
2021/06/11 12:32:53;;;;;;;3.38;2.67;;;34.80;33.80;;;;;;6219903;28;20187;-76
2021/06/11 12:35:55;;;;;;;2.15;1.90;;;34.80;33.90;;;;;;6220628;28;20160;-76
2021/06/11 12:38:58;;;;;;;5.85;2.00;;;34.90;32.50;;;;;;6220656;28;20049;-77
2021/06/11 12:42:10;;;;;;;2.78;1.65;;;34.90;32.50;;;;;;6225217;28;20129;-76
2021/06/11 12:45:12;;;;;;;3.60;3.30;;;34.90;32.10;;;;;;6225252;28;20050;-76
2021/06/11 12:48:15;;;;;;;5.10;2.92;;;34.90;33.50;;;;;;6225139;28;20073;-76
2021/06/11 12:51:17;;;;;;;5.10;3.03;;;35.20;33.60;;;;;;6225227;28;20073;-76
2021/06/11 12:54:20;;;;;;;2.97;2.78;;;35.30;32.70;;;;;;6225214;28;20471;-77
2021/06/11 12:57:22;;;;;;;2.83;2.63;;;35.40;33.20;;;;;;6226070;28;20464;-77
2021/06/11 13:00:23;;;;;;;3.92;2.90;;;35.40;32.70;;;;;;6225007;28;20045;-78
2021/06/11 13:03:25;;;;;;;3.25;2.75;;;35.40;32.80;;;;;;6225519;28;20042;-77
2021/06/11 13:06:27;;;;;;;5.38;2.80;;;35.10;33.20;;;;;;6225505;28;20132;-76
2021/06/11 13:09:30;;;;;;;8.38;3.50;;;35.10;34.00;;;;;;6224666;28;20547;-77
2021/06/11 13:12:31;;;;;;;8.35;2.85;;;35.00;33.90;;;;;;6224951;28;20057;-77
2021/06/11 13:15:33;;;;;;;3.20;2.97;;;35.00;33.20;;;;;;6224638;28;20046;-76
2021/06/11 13:18:34;;;;;;;6.88;3.10;;;35.10;33.60;;;;;;6225233;28;20127;-76
2021/06/11 13:21:37;;;;;;;3.28;3.08;;;35.00;34.20;;;;;;6224578;28;20499;-77
2021/06/11 13:24:40;;;;;;;3.75;3.33;;;35.00;34.10;;;;;;6224833;28;20099;-76
2021/06/11 13:27:41;;;;;;;3.83;3.03;;;34.90;34.00;;;;;;6224333;28;20042;-76
2021/06/11 13:30:43;;;;;;;3.50;3.20;;;34.90;34.50;;;;;;6224166;28;20089;-76
2021/06/11 13:33:44;;;;;;;3.55;2.83;;;34.80;34.10;;;;;;6225176;28;20137;-76
2021/06/11 13:36:45;;;;;;;4.00;3.28;;;34.60;34.70;;;;;;6224384;28;20073;-77
2021/06/11 13:39:48;;;;;;;3.17;2.90;;;34.60;35.30;;;;;;6224438;28;20041;-77
2021/06/11 13:42:50;;;;;;;5.55;4.13;;;34.80;35.20;;;;;;6224523;28;20125;-76
2021/06/11 13:45:51;;;;;;;3.78;3.30;;;34.90;33.90;;;;;;6224843;28;20050;-76
2021/06/11 13:48:53;;;;;;;4.32;3.03;;;34.90;34.40;;;;;;6223808;28;20531;-76
2021/06/11 13:51:54;;;;;;;4.05;3.38;;;35.00;34.50;;;;;;6223222;28;20073;-77
2021/06/11 13:54:57;;;;;;;7.55;3.90;;;35.00;34.30;;;;;;6223911;28;20077;-76
2021/06/11 13:57:58;;;;;;;3.47;3.17;;;34.90;34.30;;;;;;6224521;28;20057;-77
2021/06/11 14:01:00;;;;;;;4.20;3.67;;;34.90;35.20;;;;;;6223701;28;20073;-77
2021/06/11 14:04:01;;;;;;;4.13;3.83;;;34.80;34.70;;;;;;6223742;28;20050;-77
2021/06/11 14:07:02;;;;;;;6.65;3.72;;;34.70;35.40;;;;;;6223563;28;20395;-76
2021/06/11 14:10:07;;;;;;;4.18;3.83;;;34.70;35.50;;;;;;6224050;28;20046;-77
2021/06/11 14:13:09;;;;;;;3.40;3.10;;;34.70;35.60;;;;;;6223567;28;20072;-76
2021/06/11 14:16:10;;;;;;;3.85;3.50;;;34.70;36.00;;;;;;6223197;28;20136;-76
2021/06/11 14:19:12;;;;;;;4.88;3.03;;;34.70;36.10;;;;;;6223294;28;20064;-75
2021/06/11 14:22:13;;;;;;;4.93;4.25;;;34.80;36.40;;;;;;6206394;28;20050;-77
2021/06/11 14:25:17;;;;;;;6.20;4.00;;;34.80;35.80;;;;;;6223490;28;20078;-77
2021/06/11 14:28:18;;;;;;;4.78;4.03;;;34.80;35.60;;;;;;6223241;28;20050;-77
2021/06/11 14:31:19;;;;;;;6.45;3.35;;;34.70;35.70;;;;;;6223060;28;20065;-77
2021/06/11 14:34:21;;;;;;;7.00;3.50;;;34.60;36.20;;;;;;6223699;28;20046;-77
2021/06/11 14:37:22;;;;;;;4.13;3.75;;;34.60;36.40;;;;;;6223031;28;20042;-77
2021/06/11 14:40:25;;;;;;;9.00;4.13;;;34.70;36.10;;;;;;6222396;28;20487;-77
2021/06/11 14:43:27;;;;;;;6.55;3.80;;;34.60;36.50;;;;;;6223102;28;20072;-76
2021/06/11 14:46:28;;;;;;;4.22;3.83;;;34.40;36.90;;;;;;6223385;28;20143;-77
2021/06/11 14:49:29;;;;;;;4.00;3.60;;;34.30;37.00;;;;;;6222397;28;20191;-77
2021/06/11 14:52:34;;;;;;;4.45;3.90;;;34.20;37.40;;;;;;6222669;28;20050;-77
2021/06/11 14:55:41;;;;;;;5.15;4.75;;;33.90;37.40;;;;;;6222366;28;20048;-77
2021/06/11 14:58:42;;;;;;;;;;;33.80;37.60;;;;;;6222635;28;20049;-77
2021/06/11 15:01:44;;;;;;;5.00;4.13;;;33.70;37.90;;;;;;6223039;28;20001;-76
2021/06/11 15:04:45;;;;;;;5.40;3.80;;;33.60;37.10;;;;;;6222258;28;20400;-77
2021/06/11 15:07:46;;;;;;;4.22;3.92;;;33.70;38.10;;;;;;6222976;28;20556;-76
2021/06/11 15:10:50;;;;;;;8.85;4.90;;;33.70;38.00;;;;;;6222549;28;20089;-76
2021/06/11 15:13:51;;;;;;;4.97;4.10;;;33.90;37.20;;;;;;6222549;28;20049;-76
2021/06/11 15:16:53;;;;;;;8.13;3.72;;;33.90;37.30;;;;;;6222414;28;20042;-76
2021/06/11 15:19:54;;;;;;;4.57;3.80;;;33.90;37.50;;;;;;6222044;28;20081;-76
2021/06/11 15:22:56;;;;;;;4.30;3.90;;;33.80;37.60;;;;;;6222485;28;20081;-76
2021/06/11 15:25:59;;;;;;;4.35;3.95;;;33.90;37.60;;;;;;6222646;28;20050;-76
2021/06/11 15:29:00;;;;;;;3.92;3.63;;;33.90;37.60;;;;;;6221613;28;20080;-76
2021/06/11 15:32:02;;;;;;;4.35;3.95;;;34.00;37.90;;;;;;6222491;28;20125;-76
2021/06/11 15:35:04;;;;;;;6.95;4.65;;;33.90;37.10;;;;;;6221663;28;20511;-75
2021/06/11 15:38:06;;;;;;;3.58;3.38;;;34.10;37.30;;;;;;6222838;28;20081;-77